sensor_id;sensor_type;location;lat;lon;timestamp;P1;durP1;ratioP1;P2;durP2;ratioP2
51451;SDS011;37521;52.020;-1.740;2023-08-01T00:00:09;5.45;;;2.58;;
51451;SDS011;37521;52.020;-1.740;2023-08-01T00:02:38;4.32;;;2.20;;
51451;SDS011;37521;52.020;-1.740;2023-08-01T00:05:10;3.70;;;2.10;;
51451;SDS011;37521;52.020;-1.740;2023-08-01T00:07:39;7.13;;;2.40;;
51451;SDS011;37521;52.020;-1.740;2023-08-01T00:10:08;3.42;;;2.10;;
51451;SDS011;37521;52.020;-1.740;2023-08-01T00:12:38;5.57;;;2.53;;
51451;SDS011;37521;52.020;-1.740;2023-08-01T00:15:07;4.65;;;2.05;;
51451;SDS011;37521;52.020;-1.740;2023-08-01T00:17:36;2.83;;;1.85;;
51451;SDS011;37521;52.020;-1.740;2023-08-01T00:20:05;5.88;;;2.00;;
51451;SDS011;37521;52.020;-1.740;2023-08-01T00:22:35;5.72;;;2.10;;
51451;SDS011;37521;52.020;-1.740;2023-08-01T00:25:05;2.78;;;2.17;;
51451;SDS011;37521;52.020;-1.740;2023-08-01T00:27:35;3.25;;;1.77;;
51451;SDS011;37521;52.020;-1.740;2023-08-01T00:30:07;2.72;;;1.95;;
51451;SDS011;37521;52.020;-1.740;2023-08-01T00:32:36;3.63;;;2.03;;
51451;SDS011;37521;52.020;-1.740;2023-08-01T00:35:05;5.15;;;1.85;;
51451;SDS011;37521;52.020;-1.740;2023-08-01T00:37:33;2.78;;;2.00;;
51451;SDS011;37521;52.020;-1.740;2023-08-01T00:40:02;4.25;;;1.88;;
51451;SDS011;37521;52.020;-1.740;2023-08-01T00:42:35;5.13;;;1.60;;
51451;SDS011;37521;52.020;-1.740;2023-08-01T00:45:05;4.78;;;2.30;;
51451;SDS011;37521;52.020;-1.740;2023-08-01T00:47:35;4.00;;;2.60;;
51451;SDS011;37521;52.020;-1.740;2023-08-01T00:50:04;5.90;;;1.98;;
51451;SDS011;37521;52.020;-1.740;2023-08-01T00:52:34;7.35;;;2.25;;
51451;SDS011;37521;52.020;-1.740;2023-08-01T00:55:02;3.22;;;1.50;;
51451;SDS011;37521;52.020;-1.740;2023-08-01T00:57:34;3.97;;;2.03;;
51451;SDS011;37521;52.020;-1.740;2023-08-01T01:00:03;3.65;;;1.77;;
51451;SDS011;37521;52.020;-1.740;2023-08-01T01:02:32;3.80;;;1.48;;
51451;SDS011;37521;52.020;-1.740;2023-08-01T01:05:01;7.20;;;2.35;;
51451;SDS011;37521;52.020;-1.740;2023-08-01T01:07:31;2.60;;;1.52;;
51451;SDS011;37521;52.020;-1.740;2023-08-01T01:10:02;3.10;;;2.20;;
51451;SDS011;37521;52.020;-1.740;2023-08-01T01:12:33;3.88;;;1.88;;
51451;SDS011;37521;52.020;-1.740;2023-08-01T01:15:02;3.53;;;1.95;;
51451;SDS011;37521;52.020;-1.740;2023-08-01T01:17:32;2.95;;;2.20;;
51451;SDS011;37521;52.020;-1.740;2023-08-01T01:20:00;3.55;;;1.95;;
51451;SDS011;37521;52.020;-1.740;2023-08-01T01:22:30;3.67;;;1.90;;
51451;SDS011;37521;52.020;-1.740;2023-08-01T01:25:00;3.67;;;2.00;;
51451;SDS011;37521;52.020;-1.740;2023-08-01T01:27:31;5.00;;;1.77;;
51451;SDS011;37521;52.020;-1.740;2023-08-01T01:30:00;5.40;;;1.55;;
51451;SDS011;37521;52.020;-1.740;2023-08-01T01:32:31;4.63;;;1.98;;
51451;SDS011;37521;52.020;-1.740;2023-08-01T01:35:01;3.70;;;1.75;;
51451;SDS011;37521;52.020;-1.740;2023-08-01T01:37:32;5.18;;;1.70;;
51451;SDS011;37521;52.020;-1.740;2023-08-01T01:40:00;3.38;;;1.55;;
51451;SDS011;37521;52.020;-1.740;2023-08-01T01:42:29;2.55;;;1.48;;
51451;SDS011;37521;52.020;-1.740;2023-08-01T01:44:57;4.68;;;1.85;;
51451;SDS011;37521;52.020;-1.740;2023-08-01T01:47:26;5.40;;;1.70;;
51451;SDS011;37521;52.020;-1.740;2023-08-01T01:49:54;3.20;;;1.48;;
51451;SDS011;37521;52.020;-1.740;2023-08-01T01:52:23;1.35;;;1.17;;
51451;SDS011;37521;52.020;-1.740;2023-08-01T01:54:52;2.83;;;1.52;;
51451;SDS011;37521;52.020;-1.740;2023-08-01T01:57:21;7.20;;;1.40;;
51451;SDS011;37521;52.020;-1.740;2023-08-01T01:59:49;1.77;;;1.63;;
51451;SDS011;37521;52.020;-1.740;2023-08-01T02:02:17;5.50;;;1.85;;
51451;SDS011;37521;52.020;-1.740;2023-08-01T02:04:46;1.80;;;1.30;;
51451;SDS011;37521;52.020;-1.740;2023-08-01T02:07:16;4.55;;;1.58;;
51451;SDS011;37521;52.020;-1.740;2023-08-01T02:09:44;1.52;;;1.00;;
51451;SDS011;37521;52.020;-1.740;2023-08-01T02:12:14;2.75;;;1.98;;
51451;SDS011;37521;52.020;-1.740;2023-08-01T02:14:43;2.58;;;1.60;;
51451;SDS011;37521;52.020;-1.740;2023-08-01T02:17:11;4.70;;;1.42;;
51451;SDS011;37521;52.020;-1.740;2023-08-01T02:19:40;4.90;;;1.60;;
51451;SDS011;37521;52.020;-1.740;2023-08-01T02:22:08;2.83;;;1.08;;
51451;SDS011;37521;52.020;-1.740;2023-08-01T02:24:37;2.95;;;1.70;;
51451;SDS011;37521;52.020;-1.740;2023-08-01T02:27:05;3.47;;;1.15;;
51451;SDS011;37521;52.020;-1.740;2023-08-01T02:29:36;1.95;;;0.98;;
51451;SDS011;37521;52.020;-1.740;2023-08-01T02:32:05;3.22;;;1.50;;
51451;SDS011;37521;52.020;-1.740;2023-08-01T02:34:35;2.17;;;1.23;;
51451;SDS011;37521;52.020;-1.740;2023-08-01T02:37:03;4.15;;;2.15;;
51451;SDS011;37521;52.020;-1.740;2023-08-01T02:39:32;3.30;;;1.23;;
51451;SDS011;37521;52.020;-1.740;2023-08-01T02:42:01;2.50;;;1.23;;
51451;SDS011;37521;52.020;-1.740;2023-08-01T02:44:29;1.92;;;1.38;;
51451;SDS011;37521;52.020;-1.740;2023-08-01T02:46:59;2.42;;;1.33;;
51451;SDS011;37521;52.020;-1.740;2023-08-01T02:49:27;4.43;;;1.25;;
51451;SDS011;37521;52.020;-1.740;2023-08-01T02:51:56;4.75;;;1.20;;
51451;SDS011;37521;52.020;-1.740;2023-08-01T02:54:25;2.22;;;1.05;;
51451;SDS011;37521;52.020;-1.740;2023-08-01T02:56:54;2.30;;;1.08;;
51451;SDS011;37521;52.020;-1.740;2023-08-01T02:59:22;1.50;;;1.20;;
51451;SDS011;37521;52.020;-1.740;2023-08-01T03:01:51;1.52;;;0.85;;
51451;SDS011;37521;52.020;-1.740;2023-08-01T03:04:21;1.67;;;1.08;;
51451;SDS011;37521;52.020;-1.740;2023-08-01T03:07:09;3.72;;;1.45;;
51451;SDS011;37521;52.020;-1.740;2023-08-01T03:09:37;4.05;;;1.48;;
51451;SDS011;37521;52.020;-1.740;2023-08-01T03:12:06;1.48;;;1.23;;
51451;SDS011;37521;52.020;-1.740;2023-08-01T03:14:35;1.67;;;1.00;;
51451;SDS011;37521;52.020;-1.740;2023-08-01T03:17:03;1.23;;;1.10;;
51451;SDS011;37521;52.020;-1.740;2023-08-01T03:19:33;2.20;;;0.93;;
51451;SDS011;37521;52.020;-1.740;2023-08-01T03:22:01;3.30;;;1.08;;
51451;SDS011;37521;52.020;-1.740;2023-08-01T03:24:30;2.67;;;1.10;;
51451;SDS011;37521;52.020;-1.740;2023-08-01T03:26:59;1.73;;;1.13;;
51451;SDS011;37521;52.020;-1.740;2023-08-01T03:29:28;2.42;;;0.90;;
51451;SDS011;37521;52.020;-1.740;2023-08-01T03:31:57;3.13;;;0.90;;
51451;SDS011;37521;52.020;-1.740;2023-08-01T03:34:26;6.22;;;1.10;;
51451;SDS011;37521;52.020;-1.740;2023-08-01T03:36:56;0.73;;;0.73;;
51451;SDS011;37521;52.020;-1.740;2023-08-01T03:39:24;4.45;;;1.25;;
51451;SDS011;37521;52.020;-1.740;2023-08-01T03:41:53;3.65;;;1.05;;
51451;SDS011;37521;52.020;-1.740;2023-08-01T03:44:21;4.97;;;1.30;;
51451;SDS011;37521;52.020;-1.740;2023-08-01T03:46:50;3.15;;;1.00;;
51451;SDS011;37521;52.020;-1.740;2023-08-01T03:49:20;3.67;;;1.02;;
51451;SDS011;37521;52.020;-1.740;2023-08-01T03:51:48;3.50;;;1.08;;
51451;SDS011;37521;52.020;-1.740;2023-08-01T03:54:19;0.82;;;0.60;;
51451;SDS011;37521;52.020;-1.740;2023-08-01T03:56:48;2.22;;;0.75;;
51451;SDS011;37521;52.020;-1.740;2023-08-01T03:59:18;0.85;;;0.63;;
51451;SDS011;37521;52.020;-1.740;2023-08-01T04:01:46;1.40;;;1.00;;
51451;SDS011;37521;52.020;-1.740;2023-08-01T04:04:15;1.13;;;0.98;;
51451;SDS011;37521;52.020;-1.740;2023-08-01T04:06:44;3.88;;;0.93;;
51451;SDS011;37521;52.020;-1.740;2023-08-01T04:09:13;0.90;;;0.90;;
51451;SDS011;37521;52.020;-1.740;2023-08-01T04:11:42;3.75;;;1.42;;
51451;SDS011;37521;52.020;-1.740;2023-08-01T04:14:11;2.78;;;1.00;;
51451;SDS011;37521;52.020;-1.740;2023-08-01T04:16:40;1.20;;;0.75;;
51451;SDS011;37521;52.020;-1.740;2023-08-01T04:19:09;3.20;;;0.98;;
51451;SDS011;37521;52.020;-1.740;2023-08-01T04:21:37;3.35;;;0.82;;
51451;SDS011;37521;52.020;-1.740;2023-08-01T04:24:06;0.50;;;0.45;;
51451;SDS011;37521;52.020;-1.740;2023-08-01T04:26:34;3.15;;;0.82;;
51451;SDS011;37521;52.020;-1.740;2023-08-01T04:29:05;1.45;;;0.70;;
51451;SDS011;37521;52.020;-1.740;2023-08-01T04:31:34;1.92;;;0.63;;
51451;SDS011;37521;52.020;-1.740;2023-08-01T04:34:02;2.08;;;0.85;;
51451;SDS011;37521;52.020;-1.740;2023-08-01T04:36:31;2.78;;;1.00;;
51451;SDS011;37521;52.020;-1.740;2023-08-01T04:38:59;3.28;;;0.80;;
51451;SDS011;37521;52.020;-1.740;2023-08-01T04:41:28;2.45;;;0.77;;
51451;SDS011;37521;52.020;-1.740;2023-08-01T04:43:56;2.67;;;0.65;;
51451;SDS011;37521;52.020;-1.740;2023-08-01T04:46:26;1.33;;;0.90;;
51451;SDS011;37521;52.020;-1.740;2023-08-01T04:48:55;3.03;;;1.08;;
51451;SDS011;37521;52.020;-1.740;2023-08-01T04:51:23;1.40;;;0.50;;
51451;SDS011;37521;52.020;-1.740;2023-08-01T04:53:51;1.73;;;0.80;;
51451;SDS011;37521;52.020;-1.740;2023-08-01T04:56:20;1.38;;;0.65;;
51451;SDS011;37521;52.020;-1.740;2023-08-01T04:58:48;1.73;;;1.25;;
51451;SDS011;37521;52.020;-1.740;2023-08-01T05:01:17;4.57;;;1.52;;
51451;SDS011;37521;52.020;-1.740;2023-08-01T05:03:46;3.13;;;0.73;;
51451;SDS011;37521;52.020;-1.740;2023-08-01T05:06:15;1.50;;;0.60;;
51451;SDS011;37521;52.020;-1.740;2023-08-01T05:08:43;1.90;;;0.75;;
51451;SDS011;37521;52.020;-1.740;2023-08-01T05:11:12;0.93;;;0.80;;
51451;SDS011;37521;52.020;-1.740;2023-08-01T05:13:40;1.98;;;0.80;;
51451;SDS011;37521;52.020;-1.740;2023-08-01T05:16:09;3.13;;;1.23;;
51451;SDS011;37521;52.020;-1.740;2023-08-01T05:18:37;2.83;;;1.00;;
51451;SDS011;37521;52.020;-1.740;2023-08-01T05:21:07;3.80;;;0.90;;
51451;SDS011;37521;52.020;-1.740;2023-08-01T05:23:36;1.60;;;1.00;;
51451;SDS011;37521;52.020;-1.740;2023-08-01T05:26:04;0.70;;;0.52;;
51451;SDS011;37521;52.020;-1.740;2023-08-01T05:28:34;1.55;;;0.80;;
51451;SDS011;37521;52.020;-1.740;2023-08-01T05:31:03;0.70;;;0.70;;
51451;SDS011;37521;52.020;-1.740;2023-08-01T05:33:31;1.58;;;1.00;;
51451;SDS011;37521;52.020;-1.740;2023-08-01T05:35:59;2.15;;;0.50;;
51451;SDS011;37521;52.020;-1.740;2023-08-01T05:38:30;1.98;;;1.10;;
51451;SDS011;37521;52.020;-1.740;2023-08-01T05:40:59;0.70;;;0.65;;
51451;SDS011;37521;52.020;-1.740;2023-08-01T05:43:27;1.65;;;0.90;;
51451;SDS011;37521;52.020;-1.740;2023-08-01T05:45:56;4.68;;;0.95;;
51451;SDS011;37521;52.020;-1.740;2023-08-01T05:48:24;1.08;;;0.70;;
51451;SDS011;37521;52.020;-1.740;2023-08-01T05:50:53;3.05;;;0.93;;
51451;SDS011;37521;52.020;-1.740;2023-08-01T05:53:22;1.52;;;1.17;;
51451;SDS011;37521;52.020;-1.740;2023-08-01T05:55:53;3.40;;;1.00;;
51451;SDS011;37521;52.020;-1.740;2023-08-01T05:58:22;1.75;;;0.65;;
51451;SDS011;37521;52.020;-1.740;2023-08-01T06:00:52;6.15;;;0.95;;
51451;SDS011;37521;52.020;-1.740;2023-08-01T06:03:20;0.93;;;0.70;;
51451;SDS011;37521;52.020;-1.740;2023-08-01T06:05:49;1.80;;;0.85;;
51451;SDS011;37521;52.020;-1.740;2023-08-01T06:08:17;1.23;;;1.13;;
51451;SDS011;37521;52.020;-1.740;2023-08-01T06:10:46;3.08;;;0.90;;
51451;SDS011;37521;52.020;-1.740;2023-08-01T06:13:16;0.65;;;0.63;;
51451;SDS011;37521;52.020;-1.740;2023-08-01T06:15:44;2.42;;;0.70;;
51451;SDS011;37521;52.020;-1.740;2023-08-01T06:18:13;1.77;;;0.90;;
51451;SDS011;37521;52.020;-1.740;2023-08-01T06:20:41;1.15;;;0.85;;
51451;SDS011;37521;52.020;-1.740;2023-08-01T06:23:11;3.75;;;0.45;;
51451;SDS011;37521;52.020;-1.740;2023-08-01T06:25:39;1.17;;;0.98;;
51451;SDS011;37521;52.020;-1.740;2023-08-01T06:28:07;3.70;;;1.23;;
51451;SDS011;37521;52.020;-1.740;2023-08-01T06:30:37;2.25;;;0.90;;
51451;SDS011;37521;52.020;-1.740;2023-08-01T06:33:06;4.38;;;0.70;;
51451;SDS011;37521;52.020;-1.740;2023-08-01T06:35:34;3.45;;;0.70;;
51451;SDS011;37521;52.020;-1.740;2023-08-01T06:38:03;0.80;;;0.80;;
51451;SDS011;37521;52.020;-1.740;2023-08-01T06:40:31;2.03;;;0.60;;
51451;SDS011;37521;52.020;-1.740;2023-08-01T06:43:00;1.48;;;0.70;;
51451;SDS011;37521;52.020;-1.740;2023-08-01T06:45:28;4.40;;;1.27;;
51451;SDS011;37521;52.020;-1.740;2023-08-01T06:47:58;1.92;;;0.80;;
51451;SDS011;37521;52.020;-1.740;2023-08-01T06:50:27;3.85;;;0.82;;
51451;SDS011;37521;52.020;-1.740;2023-08-01T06:52:56;2.97;;;0.80;;
51451;SDS011;37521;52.020;-1.740;2023-08-01T06:55:25;1.50;;;0.88;;
51451;SDS011;37521;52.020;-1.740;2023-08-01T06:57:54;2.47;;;1.40;;
51451;SDS011;37521;52.020;-1.740;2023-08-01T07:00:22;4.13;;;1.13;;
51451;SDS011;37521;52.020;-1.740;2023-08-01T07:02:51;1.40;;;0.90;;
51451;SDS011;37521;52.020;-1.740;2023-08-01T07:05:21;2.67;;;1.17;;
51451;SDS011;37521;52.020;-1.740;2023-08-01T07:07:49;2.47;;;0.80;;
51451;SDS011;37521;52.020;-1.740;2023-08-01T07:10:18;2.67;;;0.93;;
51451;SDS011;37521;52.020;-1.740;2023-08-01T07:12:47;3.40;;;0.93;;
51451;SDS011;37521;52.020;-1.740;2023-08-01T07:15:15;1.98;;;0.75;;
51451;SDS011;37521;52.020;-1.740;2023-08-01T07:17:44;2.45;;;0.85;;
51451;SDS011;37521;52.020;-1.740;2023-08-01T07:20:12;2.67;;;1.10;;
51451;SDS011;37521;52.020;-1.740;2023-08-01T07:22:43;1.30;;;0.70;;
51451;SDS011;37521;52.020;-1.740;2023-08-01T07:25:11;5.85;;;0.68;;
51451;SDS011;37521;52.020;-1.740;2023-08-01T07:27:40;1.45;;;0.80;;
51451;SDS011;37521;52.020;-1.740;2023-08-01T07:30:08;4.05;;;0.85;;
51451;SDS011;37521;52.020;-1.740;2023-08-01T07:32:37;1.10;;;0.57;;
51451;SDS011;37521;52.020;-1.740;2023-08-01T07:35:06;1.13;;;0.85;;
51451;SDS011;37521;52.020;-1.740;2023-08-01T07:37:35;1.45;;;0.68;;
51451;SDS011;37521;52.020;-1.740;2023-08-01T07:40:06;3.50;;;0.75;;
51451;SDS011;37521;52.020;-1.740;2023-08-01T07:42:36;2.72;;;0.75;;
51451;SDS011;37521;52.020;-1.740;2023-08-01T07:45:05;3.33;;;0.90;;
51451;SDS011;37521;52.020;-1.740;2023-08-01T07:47:34;1.15;;;0.57;;
51451;SDS011;37521;52.020;-1.740;2023-08-01T07:50:02;3.78;;;1.17;;
51451;SDS011;37521;52.020;-1.740;2023-08-01T07:52:32;1.02;;;0.85;;
51451;SDS011;37521;52.020;-1.740;2023-08-01T07:55:00;1.83;;;0.73;;
51451;SDS011;37521;52.020;-1.740;2023-08-01T07:57:30;1.20;;;0.98;;
51451;SDS011;37521;52.020;-1.740;2023-08-01T07:59:58;2.33;;;0.80;;
51451;SDS011;37521;52.020;-1.740;2023-08-01T08:02:47;3.90;;;1.33;;
51451;SDS011;37521;52.020;-1.740;2023-08-01T08:05:17;1.17;;;0.88;;
51451;SDS011;37521;52.020;-1.740;2023-08-01T08:07:45;5.88;;;1.08;;
51451;SDS011;37521;52.020;-1.740;2023-08-01T08:10:15;4.63;;;1.02;;
51451;SDS011;37521;52.020;-1.740;2023-08-01T08:12:45;2.22;;;0.65;;
51451;SDS011;37521;52.020;-1.740;2023-08-01T08:15:13;2.03;;;0.70;;
51451;SDS011;37521;52.020;-1.740;2023-08-01T08:17:42;2.70;;;0.90;;
51451;SDS011;37521;52.020;-1.740;2023-08-01T08:20:11;4.68;;;1.05;;
51451;SDS011;37521;52.020;-1.740;2023-08-01T08:22:39;3.35;;;0.60;;
51451;SDS011;37521;52.020;-1.740;2023-08-01T08:25:08;1.08;;;0.70;;
51451;SDS011;37521;52.020;-1.740;2023-08-01T08:27:36;4.70;;;1.00;;
51451;SDS011;37521;52.020;-1.740;2023-08-01T08:30:07;2.97;;;1.00;;
51451;SDS011;37521;52.020;-1.740;2023-08-01T08:32:36;2.80;;;1.08;;
51451;SDS011;37521;52.020;-1.740;2023-08-01T08:35:05;1.33;;;1.08;;
51451;SDS011;37521;52.020;-1.740;2023-08-01T08:37:34;2.33;;;0.88;;
51451;SDS011;37521;52.020;-1.740;2023-08-01T08:40:04;3.83;;;0.88;;
51451;SDS011;37521;52.020;-1.740;2023-08-01T08:42:33;0.70;;;0.70;;
51451;SDS011;37521;52.020;-1.740;2023-08-01T08:45:02;2.20;;;1.13;;
51451;SDS011;37521;52.020;-1.740;2023-08-01T08:47:36;2.83;;;0.90;;
51451;SDS011;37521;52.020;-1.740;2023-08-01T08:50:10;2.03;;;1.02;;
51451;SDS011;37521;52.020;-1.740;2023-08-01T08:52:39;4.10;;;1.15;;
51451;SDS011;37521;52.020;-1.740;2023-08-01T08:55:08;1.48;;;0.63;;
51451;SDS011;37521;52.020;-1.740;2023-08-01T08:57:37;0.98;;;0.70;;
51451;SDS011;37521;52.020;-1.740;2023-08-01T09:00:07;1.42;;;0.93;;
51451;SDS011;37521;52.020;-1.740;2023-08-01T09:02:38;3.67;;;1.30;;
51451;SDS011;37521;52.020;-1.740;2023-08-01T09:05:07;2.95;;;1.05;;
51451;SDS011;37521;52.020;-1.740;2023-08-01T09:07:38;1.95;;;1.20;;
51451;SDS011;37521;52.020;-1.740;2023-08-01T09:10:10;1.45;;;0.70;;
51451;SDS011;37521;52.020;-1.740;2023-08-01T09:12:38;2.22;;;0.73;;
51451;SDS011;37521;52.020;-1.740;2023-08-01T09:15:07;4.07;;;1.00;;
51451;SDS011;37521;52.020;-1.740;2023-08-01T09:17:48;3.42;;;0.88;;
51451;SDS011;37521;52.020;-1.740;2023-08-01T09:20:17;3.60;;;1.13;;
51451;SDS011;37521;52.020;-1.740;2023-08-01T09:22:46;1.83;;;0.95;;
51451;SDS011;37521;52.020;-1.740;2023-08-01T09:25:16;2.47;;;0.93;;
51451;SDS011;37521;52.020;-1.740;2023-08-01T09:27:44;2.10;;;1.00;;
51451;SDS011;37521;52.020;-1.740;2023-08-01T09:30:13;1.58;;;1.00;;
51451;SDS011;37521;52.020;-1.740;2023-08-01T09:32:52;2.00;;;0.80;;
51451;SDS011;37521;52.020;-1.740;2023-08-01T09:35:21;5.90;;;0.82;;
51451;SDS011;37521;52.020;-1.740;2023-08-01T09:37:51;6.75;;;0.80;;
51451;SDS011;37521;52.020;-1.740;2023-08-01T09:40:19;0.55;;;0.45;;
51451;SDS011;37521;52.020;-1.740;2023-08-01T09:42:48;2.17;;;0.80;;
51451;SDS011;37521;52.020;-1.740;2023-08-01T09:45:17;1.65;;;0.90;;
51451;SDS011;37521;52.020;-1.740;2023-08-01T09:47:46;4.38;;;0.73;;
51451;SDS011;37521;52.020;-1.740;2023-08-01T09:50:21;2.33;;;0.88;;
51451;SDS011;37521;52.020;-1.740;2023-08-01T09:52:51;2.05;;;1.10;;
51451;SDS011;37521;52.020;-1.740;2023-08-01T09:55:20;4.65;;;0.80;;
51451;SDS011;37521;52.020;-1.740;2023-08-01T09:57:54;2.50;;;0.90;;
51451;SDS011;37521;52.020;-1.740;2023-08-01T10:00:26;1.33;;;0.63;;
51451;SDS011;37521;52.020;-1.740;2023-08-01T10:02:55;2.35;;;0.75;;
51451;SDS011;37521;52.020;-1.740;2023-08-01T10:05:29;1.67;;;0.70;;
51451;SDS011;37521;52.020;-1.740;2023-08-01T10:08:00;2.17;;;0.95;;
51451;SDS011;37521;52.020;-1.740;2023-08-01T10:10:29;1.92;;;0.90;;
51451;SDS011;37521;52.020;-1.740;2023-08-01T10:12:58;1.63;;;0.93;;
51451;SDS011;37521;52.020;-1.740;2023-08-01T10:15:29;3.33;;;0.85;;
51451;SDS011;37521;52.020;-1.740;2023-08-01T10:17:58;1.02;;;0.82;;
51451;SDS011;37521;52.020;-1.740;2023-08-01T10:20:27;2.53;;;0.70;;
51451;SDS011;37521;52.020;-1.740;2023-08-01T10:22:57;1.10;;;0.52;;
51451;SDS011;37521;52.020;-1.740;2023-08-01T10:25:26;2.90;;;0.90;;
51451;SDS011;37521;52.020;-1.740;2023-08-01T10:27:58;0.90;;;0.80;;
51451;SDS011;37521;52.020;-1.740;2023-08-01T10:30:27;3.70;;;0.82;;
51451;SDS011;37521;52.020;-1.740;2023-08-01T10:32:57;1.98;;;0.65;;
51451;SDS011;37521;52.020;-1.740;2023-08-01T10:35:33;0.93;;;0.57;;
51451;SDS011;37521;52.020;-1.740;2023-08-01T10:38:07;2.15;;;0.88;;
51451;SDS011;37521;52.020;-1.740;2023-08-01T10:40:37;0.80;;;0.40;;
51451;SDS011;37521;52.020;-1.740;2023-08-01T10:43:19;1.25;;;0.40;;
51451;SDS011;37521;52.020;-1.740;2023-08-01T10:45:59;1.23;;;0.77;;
51451;SDS011;37521;52.020;-1.740;2023-08-01T10:48:29;0.93;;;0.55;;
51451;SDS011;37521;52.020;-1.740;2023-08-01T10:50:58;1.95;;;0.65;;
51451;SDS011;37521;52.020;-1.740;2023-08-01T10:53:38;0.52;;;0.38;;
51451;SDS011;37521;52.020;-1.740;2023-08-01T10:56:15;2.13;;;0.65;;
51451;SDS011;37521;52.020;-1.740;2023-08-01T10:58:45;0.85;;;0.73;;
51451;SDS011;37521;52.020;-1.740;2023-08-01T11:01:15;2.85;;;0.60;;
51451;SDS011;37521;52.020;-1.740;2023-08-01T11:03:43;2.63;;;0.55;;
51451;SDS011;37521;52.020;-1.740;2023-08-01T11:06:12;0.93;;;0.85;;
51451;SDS011;37521;52.020;-1.740;2023-08-01T11:08:42;1.95;;;0.50;;
51451;SDS011;37521;52.020;-1.740;2023-08-01T11:11:11;1.50;;;1.00;;
51451;SDS011;37521;52.020;-1.740;2023-08-01T11:13:49;1.67;;;0.73;;
51451;SDS011;37521;52.020;-1.740;2023-08-01T11:16:18;2.25;;;1.38;;
51451;SDS011;37521;52.020;-1.740;2023-08-01T11:18:47;1.23;;;0.90;;
51451;SDS011;37521;52.020;-1.740;2023-08-01T11:21:24;1.63;;;0.85;;
51451;SDS011;37521;52.020;-1.740;2023-08-01T11:23:56;0.70;;;0.68;;
51451;SDS011;37521;52.020;-1.740;2023-08-01T11:26:25;1.13;;;0.80;;
51451;SDS011;37521;52.020;-1.740;2023-08-01T11:28:53;1.15;;;0.93;;
51451;SDS011;37521;52.020;-1.740;2023-08-01T11:31:22;1.40;;;0.82;;
51451;SDS011;37521;52.020;-1.740;2023-08-01T11:33:55;1.00;;;0.70;;
51451;SDS011;37521;52.020;-1.740;2023-08-01T11:36:25;2.27;;;0.93;;
51451;SDS011;37521;52.020;-1.740;2023-08-01T11:38:57;1.80;;;1.00;;
51451;SDS011;37521;52.020;-1.740;2023-08-01T11:41:27;1.00;;;0.55;;
51451;SDS011;37521;52.020;-1.740;2023-08-01T11:44:00;2.33;;;0.70;;
51451;SDS011;37521;52.020;-1.740;2023-08-01T11:46:30;0.90;;;0.75;;
51451;SDS011;37521;52.020;-1.740;2023-08-01T11:49:00;1.85;;;0.65;;
51451;SDS011;37521;52.020;-1.740;2023-08-01T11:51:29;1.88;;;0.82;;
51451;SDS011;37521;52.020;-1.740;2023-08-01T11:54:00;1.08;;;0.73;;
51451;SDS011;37521;52.020;-1.740;2023-08-01T11:56:29;4.03;;;0.90;;
51451;SDS011;37521;52.020;-1.740;2023-08-01T11:58:58;0.82;;;0.45;;
51451;SDS011;37521;52.020;-1.740;2023-08-01T12:01:27;1.33;;;0.65;;
51451;SDS011;37521;52.020;-1.740;2023-08-01T12:03:56;2.28;;;0.70;;
51451;SDS011;37521;52.020;-1.740;2023-08-01T12:06:25;0.65;;;0.50;;
51451;SDS011;37521;52.020;-1.740;2023-08-01T12:08:53;2.30;;;0.63;;
51451;SDS011;37521;52.020;-1.740;2023-08-01T12:11:24;0.30;;;0.30;;
51451;SDS011;37521;52.020;-1.740;2023-08-01T12:14:01;3.20;;;0.88;;
51451;SDS011;37521;52.020;-1.740;2023-08-01T12:16:30;0.77;;;0.50;;
51451;SDS011;37521;52.020;-1.740;2023-08-01T12:18:59;1.38;;;0.40;;
51451;SDS011;37521;52.020;-1.740;2023-08-01T12:21:28;1.13;;;0.40;;
51451;SDS011;37521;52.020;-1.740;2023-08-01T12:23:57;2.00;;;0.50;;
51451;SDS011;37521;52.020;-1.740;2023-08-01T12:26:27;0.73;;;0.57;;
51451;SDS011;37521;52.020;-1.740;2023-08-01T12:28:56;0.35;;;0.32;;
51451;SDS011;37521;52.020;-1.740;2023-08-01T12:31:24;2.25;;;0.35;;
51451;SDS011;37521;52.020;-1.740;2023-08-01T12:33:53;1.23;;;0.30;;
51451;SDS011;37521;52.020;-1.740;2023-08-01T12:36:21;0.50;;;0.50;;
51451;SDS011;37521;52.020;-1.740;2023-08-01T12:38:51;5.72;;;0.75;;
51451;SDS011;37521;52.020;-1.740;2023-08-01T12:41:19;1.45;;;0.50;;
51451;SDS011;37521;52.020;-1.740;2023-08-01T12:43:49;0.70;;;0.60;;
51451;SDS011;37521;52.020;-1.740;2023-08-01T12:46:18;0.40;;;0.38;;
51451;SDS011;37521;52.020;-1.740;2023-08-01T12:48:46;0.50;;;0.45;;
51451;SDS011;37521;52.020;-1.740;2023-08-01T12:51:15;0.85;;;0.73;;
51451;SDS011;37521;52.020;-1.740;2023-08-01T12:53:43;2.50;;;0.77;;
51451;SDS011;37521;52.020;-1.740;2023-08-01T12:56:13;1.58;;;0.60;;
51451;SDS011;37521;52.020;-1.740;2023-08-01T12:58:42;1.70;;;0.40;;
51451;SDS011;37521;52.020;-1.740;2023-08-01T13:01:11;2.05;;;0.77;;
51451;SDS011;37521;52.020;-1.740;2023-08-01T13:03:40;0.30;;;0.30;;
51451;SDS011;37521;52.020;-1.740;2023-08-01T13:06:10;2.08;;;0.50;;
51451;SDS011;37521;52.020;-1.740;2023-08-01T13:08:39;0.82;;;0.30;;
51451;SDS011;37521;52.020;-1.740;2023-08-01T13:11:11;0.50;;;0.50;;
51451;SDS011;37521;52.020;-1.740;2023-08-01T13:16:09;0.98;;;0.77;;
51451;SDS011;37521;52.020;-1.740;2023-08-01T13:18:40;0.38;;;0.38;;
51451;SDS011;37521;52.020;-1.740;2023-08-01T13:21:12;0.57;;;0.40;;
51451;SDS011;37521;52.020;-1.740;2023-08-01T13:23:41;0.90;;;0.38;;
51451;SDS011;37521;52.020;-1.740;2023-08-01T13:26:09;0.50;;;0.50;;
51451;SDS011;37521;52.020;-1.740;2023-08-01T13:28:38;0.47;;;0.35;;
51451;SDS011;37521;52.020;-1.740;2023-08-01T13:31:06;2.88;;;0.60;;
51451;SDS011;37521;52.020;-1.740;2023-08-01T13:33:36;2.28;;;0.68;;
51451;SDS011;37521;52.020;-1.740;2023-08-01T13:36:05;2.15;;;0.30;;
51451;SDS011;37521;52.020;-1.740;2023-08-01T13:38:34;0.70;;;0.47;;
51451;SDS011;37521;52.020;-1.740;2023-08-01T13:41:02;2.22;;;0.52;;
51451;SDS011;37521;52.020;-1.740;2023-08-01T13:43:33;3.13;;;0.73;;
51451;SDS011;37521;52.020;-1.740;2023-08-01T13:46:07;0.52;;;0.52;;
51451;SDS011;37521;52.020;-1.740;2023-08-01T13:48:56;0.25;;;0.25;;
51451;SDS011;37521;52.020;-1.740;2023-08-01T13:51:25;2.70;;;0.50;;
51451;SDS011;37521;52.020;-1.740;2023-08-01T13:53:56;0.88;;;0.40;;
51451;SDS011;37521;52.020;-1.740;2023-08-01T13:56:25;0.70;;;0.50;;
51451;SDS011;37521;52.020;-1.740;2023-08-01T13:58:54;1.27;;;0.47;;
51451;SDS011;37521;52.020;-1.740;2023-08-01T14:01:22;0.43;;;0.20;;
51451;SDS011;37521;52.020;-1.740;2023-08-01T14:03:51;0.47;;;0.38;;
51451;SDS011;37521;52.020;-1.740;2023-08-01T14:06:21;0.82;;;0.38;;
51451;SDS011;37521;52.020;-1.740;2023-08-01T14:08:50;0.40;;;0.40;;
51451;SDS011;37521;52.020;-1.740;2023-08-01T14:11:18;1.45;;;0.45;;
51451;SDS011;37521;52.020;-1.740;2023-08-01T14:13:46;1.77;;;0.60;;
51451;SDS011;37521;52.020;-1.740;2023-08-01T14:16:15;0.52;;;0.50;;
51451;SDS011;37521;52.020;-1.740;2023-08-01T14:18:44;1.00;;;0.60;;
51451;SDS011;37521;52.020;-1.740;2023-08-01T14:21:12;1.90;;;0.38;;
51451;SDS011;37521;52.020;-1.740;2023-08-01T14:23:42;1.85;;;0.40;;
51451;SDS011;37521;52.020;-1.740;2023-08-01T14:26:11;1.70;;;0.60;;
51451;SDS011;37521;52.020;-1.740;2023-08-01T14:28:39;1.38;;;0.68;;
51451;SDS011;37521;52.020;-1.740;2023-08-01T14:31:08;4.43;;;0.40;;
51451;SDS011;37521;52.020;-1.740;2023-08-01T14:33:36;0.15;;;0.15;;
51451;SDS011;37521;52.020;-1.740;2023-08-01T14:36:07;3.28;;;0.40;;
51451;SDS011;37521;52.020;-1.740;2023-08-01T14:38:39;0.65;;;0.30;;
51451;SDS011;37521;52.020;-1.740;2023-08-01T14:41:09;1.75;;;0.43;;
51451;SDS011;37521;52.020;-1.740;2023-08-01T14:43:57;1.00;;;0.20;;
51451;SDS011;37521;52.020;-1.740;2023-08-01T14:46:26;1.23;;;0.52;;
51451;SDS011;37521;52.020;-1.740;2023-08-01T14:48:54;2.03;;;0.45;;